Catano, PR

1:42 AM AST on August 29, 2014 (GMT -0400)
WP3W-WX @ Levittown | Change Station
CLOSE
Current Station
Personal Weather Station
Location: Toa Baja, PR
Elevation: 10 ft
Nearby Weather Stations

Elev 10 ft 18.44 °N, 66.17 °W | Updated 12 minutes ago

Partly Cloudy
Partly Cloudy
79.9 °F
Feels Like 83 °F
N
4.3
Wind Variable Wind from SSE

Today
High -- | Low -- °F
--% Chance of Precip.
Yesterday
High -- | Low -- °F
Precip. -- in
6:09 AM 6:41 PM
Waxing Crescent, 12% visible
Pressure 30.02 in
Visibility 10.0 miles
Clouds Few 2800 ft
Heat Index 83 °F
Dew Point 71 °F
Humidity 75%
Rainfall 0.00 in
Snow Depth Not available.
UV 0 out of 12
Pollen Not available.
Air Quality Not available.
Flu Activity Not available.
METAR TJSJ 290456Z 00000KT 10SM FEW028 27/23 A3002 RMK AO2 SLP166 OCNL LTGICCC DSNT S-SW CB DSNT S-SW T02720233

More Conditions Fewer Conditions

Pressure 30.02 in
Visibility 10.0 miles
Clouds Few 2800 ft
Heat Index 83 °F
Dew Point 71 °F
Humidity 75%
Rainfall 0.00 in
Snow Depth Not available.
UV 0 out of 12
Pollen Not available.
Air Quality Not available.
Flu Activity Not available.
METAR TJSJ 290456Z 00000KT 10SM FEW028 27/23 A3002 RMK AO2 SLP166 OCNL LTGICCC DSNT S-SW CB DSNT S-SW T02720233

More Conditions Fewer Conditions

10-Day Weather Forecast

Almanac

Astronomy

Aug. 29, 2014 Rise Set
Actual Time 6:09 AM AST 6:41 PM AST
Civil Twilight 5:47 AM AST 7:03 PM AST
Nautical Twilight 5:21 AM AST 7:29 PM AST
Astronomical Twilight 4:55 AM AST 7:55 PM AST
Moon 9:18 AM AST 9:16 PM AST
Length of Visible Light 13h 16m
Length of Day
12h 31m
Tomorrow will be 0m 59s shorter.
Waxing Crescent, 12% of the Moon is Illuminated
Today
Waxing Crescent
Sep 2
First Quarter
Sep 8
Full
Sep 15
Last Quarter
Sep 24
New

Community

WunderPhotos

Upload Photos

1,748,197 photos uploaded!

Nearby

Snow Depth

Station Depth Elevation
No new snow has been reported.

Earthquake Activity

City Distance Mag. Time & Date
No recent earthquake activity has been reported nearby.
Minimum magnitude displayed is 2.5.

Coastal Water Temperatures

Place Temperature
San Juan, PR 84.9 °F
Mayaguez, PR 84.0 °F
Esperanza, PR 84.0 °F

Nearby Weather Stations